sensor_id;sensor_type;location;lat;lon;timestamp;P1;durP1;ratioP1;P2;durP2;ratioP2
66163;SDS011;52962;51.088;3.096;2023-04-28T00:00:38;7.45;;;6.65;;
66163;SDS011;52962;51.088;3.096;2023-04-28T00:05:34;8.32;;;6.30;;
66163;SDS011;52962;51.088;3.096;2023-04-28T00:08:04;7.53;;;6.47;;
66163;SDS011;52962;51.088;3.096;2023-04-28T00:10:33;6.80;;;6.18;;
66163;SDS011;52962;51.088;3.096;2023-04-28T00:13:01;8.75;;;6.57;;
66163;SDS011;52962;51.088;3.096;2023-04-28T00:15:29;8.45;;;7.10;;
66163;SDS011;52962;51.088;3.096;2023-04-28T00:17:58;8.15;;;6.28;;
66163;SDS011;52962;51.088;3.096;2023-04-28T00:20:26;7.65;;;6.95;;
66163;SDS011;52962;51.088;3.096;2023-04-28T00:22:54;8.82;;;7.53;;
66163;SDS011;52962;51.088;3.096;2023-04-28T00:25:23;9.20;;;7.60;;
66163;SDS011;52962;51.088;3.096;2023-04-28T00:27:52;8.05;;;7.00;;
66163;SDS011;52962;51.088;3.096;2023-04-28T00:30:20;9.23;;;7.22;;
66163;SDS011;52962;51.088;3.096;2023-04-28T00:32:50;9.65;;;7.07;;
66163;SDS011;52962;51.088;3.096;2023-04-28T00:35:19;8.60;;;7.20;;
66163;SDS011;52962;51.088;3.096;2023-04-28T00:37:47;8.95;;;8.05;;
66163;SDS011;52962;51.088;3.096;2023-04-28T00:42:44;6.80;;;6.05;;
66163;SDS011;52962;51.088;3.096;2023-04-28T00:45:13;8.57;;;7.30;;
66163;SDS011;52962;51.088;3.096;2023-04-28T00:47:41;7.72;;;6.30;;
66163;SDS011;52962;51.088;3.096;2023-04-28T00:50:09;11.05;;;7.28;;
66163;SDS011;52962;51.088;3.096;2023-04-28T00:52:37;9.40;;;6.57;;
66163;SDS011;52962;51.088;3.096;2023-04-28T00:57:35;7.97;;;6.80;;
66163;SDS011;52962;51.088;3.096;2023-04-28T01:00:05;9.98;;;7.90;;
66163;SDS011;52962;51.088;3.096;2023-04-28T01:02:35;8.30;;;7.45;;
66163;SDS011;52962;51.088;3.096;2023-04-28T01:07:32;9.00;;;6.15;;
66163;SDS011;52962;51.088;3.096;2023-04-28T01:10:02;10.05;;;7.22;;
66163;SDS011;52962;51.088;3.096;2023-04-28T01:12:33;7.85;;;7.00;;
66163;SDS011;52962;51.088;3.096;2023-04-28T01:15:01;12.48;;;7.85;;
66163;SDS011;52962;51.088;3.096;2023-04-28T01:17:31;9.57;;;7.32;;
66163;SDS011;52962;51.088;3.096;2023-04-28T01:20:00;8.63;;;7.65;;
66163;SDS011;52962;51.088;3.096;2023-04-28T01:22:30;11.27;;;7.68;;
66163;SDS011;52962;51.088;3.096;2023-04-28T01:25:00;10.48;;;8.77;;
66163;SDS011;52962;51.088;3.096;2023-04-28T01:27:29;10.60;;;7.65;;
66163;SDS011;52962;51.088;3.096;2023-04-28T01:29:58;10.98;;;7.63;;
66163;SDS011;52962;51.088;3.096;2023-04-28T01:34:55;8.27;;;6.90;;
66163;SDS011;52962;51.088;3.096;2023-04-28T01:37:23;7.97;;;7.18;;
66163;SDS011;52962;51.088;3.096;2023-04-28T01:39:52;10.82;;;8.68;;
66163;SDS011;52962;51.088;3.096;2023-04-28T01:42:22;13.05;;;8.07;;
66163;SDS011;52962;51.088;3.096;2023-04-28T01:44:51;13.07;;;8.32;;
66163;SDS011;52962;51.088;3.096;2023-04-28T01:47:19;9.00;;;8.02;;
66163;SDS011;52962;51.088;3.096;2023-04-28T01:49:47;11.80;;;9.18;;
66163;SDS011;52962;51.088;3.096;2023-04-28T01:52:15;8.80;;;7.93;;
66163;SDS011;52962;51.088;3.096;2023-04-28T01:54:46;10.32;;;8.48;;
66163;SDS011;52962;51.088;3.096;2023-04-28T01:57:14;12.73;;;8.80;;
66163;SDS011;52962;51.088;3.096;2023-04-28T01:59:45;9.43;;;8.40;;
66163;SDS011;52962;51.088;3.096;2023-04-28T02:02:13;13.00;;;9.10;;
66163;SDS011;52962;51.088;3.096;2023-04-28T02:04:42;9.73;;;8.30;;
66163;SDS011;52962;51.088;3.096;2023-04-28T02:07:10;9.90;;;8.63;;
66163;SDS011;52962;51.088;3.096;2023-04-28T02:09:38;9.48;;;8.30;;
66163;SDS011;52962;51.088;3.096;2023-04-28T02:12:06;10.30;;;7.85;;
66163;SDS011;52962;51.088;3.096;2023-04-28T02:14:34;12.75;;;8.77;;
66163;SDS011;52962;51.088;3.096;2023-04-28T02:17:04;10.25;;;8.70;;
66163;SDS011;52962;51.088;3.096;2023-04-28T02:19:32;12.20;;;9.85;;
66163;SDS011;52962;51.088;3.096;2023-04-28T02:22:00;10.95;;;8.90;;
66163;SDS011;52962;51.088;3.096;2023-04-28T02:24:28;11.38;;;9.32;;
66163;SDS011;52962;51.088;3.096;2023-04-28T02:26:57;12.82;;;9.55;;
66163;SDS011;52962;51.088;3.096;2023-04-28T02:29:26;9.77;;;8.38;;
66163;SDS011;52962;51.088;3.096;2023-04-28T02:31:57;9.48;;;8.55;;
66163;SDS011;52962;51.088;3.096;2023-04-28T02:34:27;12.32;;;9.32;;
66163;SDS011;52962;51.088;3.096;2023-04-28T02:36:55;10.85;;;8.52;;
66163;SDS011;52962;51.088;3.096;2023-04-28T02:39:23;9.90;;;7.53;;
66163;SDS011;52962;51.088;3.096;2023-04-28T02:41:55;12.32;;;9.32;;
66163;SDS011;52962;51.088;3.096;2023-04-28T02:44:23;15.15;;;9.50;;
66163;SDS011;52962;51.088;3.096;2023-04-28T02:46:52;11.30;;;8.73;;
66163;SDS011;52962;51.088;3.096;2023-04-28T02:49:22;12.20;;;9.00;;
66163;SDS011;52962;51.088;3.096;2023-04-28T02:51:51;10.40;;;9.15;;
66163;SDS011;52962;51.088;3.096;2023-04-28T02:54:19;12.10;;;9.50;;
66163;SDS011;52962;51.088;3.096;2023-04-28T02:59:23;10.07;;;8.38;;
66163;SDS011;52962;51.088;3.096;2023-04-28T03:01:52;10.43;;;8.07;;
66163;SDS011;52962;51.088;3.096;2023-04-28T03:04:20;10.50;;;9.40;;
66163;SDS011;52962;51.088;3.096;2023-04-28T03:06:49;12.32;;;9.15;;
66163;SDS011;52962;51.088;3.096;2023-04-28T03:09:18;9.88;;;8.93;;
66163;SDS011;52962;51.088;3.096;2023-04-28T03:11:47;13.52;;;10.13;;
66163;SDS011;52962;51.088;3.096;2023-04-28T03:14:15;14.02;;;9.10;;
66163;SDS011;52962;51.088;3.096;2023-04-28T03:19:12;10.65;;;7.85;;
66163;SDS011;52962;51.088;3.096;2023-04-28T03:21:40;12.10;;;9.23;;
66163;SDS011;52962;51.088;3.096;2023-04-28T03:24:11;8.45;;;7.63;;
66163;SDS011;52962;51.088;3.096;2023-04-28T03:26:41;10.32;;;8.35;;
66163;SDS011;52962;51.088;3.096;2023-04-28T03:29:09;10.88;;;8.68;;
66163;SDS011;52962;51.088;3.096;2023-04-28T03:34:06;8.65;;;7.45;;
66163;SDS011;52962;51.088;3.096;2023-04-28T03:36:34;8.68;;;7.80;;
66163;SDS011;52962;51.088;3.096;2023-04-28T03:39:10;11.57;;;8.82;;
66163;SDS011;52962;51.088;3.096;2023-04-28T03:44:26;9.25;;;7.13;;
66163;SDS011;52962;51.088;3.096;2023-04-28T03:46:54;9.10;;;7.80;;
66163;SDS011;52962;51.088;3.096;2023-04-28T03:49:22;9.90;;;8.68;;
66163;SDS011;52962;51.088;3.096;2023-04-28T03:51:51;9.43;;;8.35;;
66163;SDS011;52962;51.088;3.096;2023-04-28T03:54:19;9.80;;;8.45;;
66163;SDS011;52962;51.088;3.096;2023-04-28T03:56:47;9.75;;;8.63;;
66163;SDS011;52962;51.088;3.096;2023-04-28T03:59:16;9.30;;;6.63;;
66163;SDS011;52962;51.088;3.096;2023-04-28T04:01:45;8.35;;;7.30;;
66163;SDS011;52962;51.088;3.096;2023-04-28T04:04:13;8.80;;;6.70;;
66163;SDS011;52962;51.088;3.096;2023-04-28T04:06:43;7.80;;;6.20;;
66163;SDS011;52962;51.088;3.096;2023-04-28T04:09:12;8.30;;;6.45;;
66163;SDS011;52962;51.088;3.096;2023-04-28T04:11:40;5.90;;;5.38;;
66163;SDS011;52962;51.088;3.096;2023-04-28T04:14:08;7.80;;;6.13;;
66163;SDS011;52962;51.088;3.096;2023-04-28T04:16:37;5.10;;;4.35;;
66163;SDS011;52962;51.088;3.096;2023-04-28T04:19:08;6.57;;;5.72;;
66163;SDS011;52962;51.088;3.096;2023-04-28T04:21:39;5.75;;;5.22;;
66163;SDS011;52962;51.088;3.096;2023-04-28T04:24:08;5.65;;;4.85;;
66163;SDS011;52962;51.088;3.096;2023-04-28T04:26:36;5.40;;;4.90;;
66163;SDS011;52962;51.088;3.096;2023-04-28T04:29:20;5.18;;;4.68;;
66163;SDS011;52962;51.088;3.096;2023-04-28T04:31:50;5.57;;;4.80;;
66163;SDS011;52962;51.088;3.096;2023-04-28T04:34:20;6.07;;;5.07;;
66163;SDS011;52962;51.088;3.096;2023-04-28T04:36:48;5.07;;;4.57;;
66163;SDS011;52962;51.088;3.096;2023-04-28T04:39:17;5.18;;;4.20;;
66163;SDS011;52962;51.088;3.096;2023-04-28T04:41:46;5.57;;;3.88;;
66163;SDS011;52962;51.088;3.096;2023-04-28T04:44:32;4.80;;;4.10;;
66163;SDS011;52962;51.088;3.096;2023-04-28T04:47:02;3.63;;;3.33;;
66163;SDS011;52962;51.088;3.096;2023-04-28T04:49:33;4.13;;;3.45;;
66163;SDS011;52962;51.088;3.096;2023-04-28T04:52:01;4.00;;;2.70;;
66163;SDS011;52962;51.088;3.096;2023-04-28T04:54:32;4.72;;;3.30;;
66163;SDS011;52962;51.088;3.096;2023-04-28T04:57:00;3.70;;;3.30;;
66163;SDS011;52962;51.088;3.096;2023-04-28T04:59:48;3.03;;;2.70;;
66163;SDS011;52962;51.088;3.096;2023-04-28T05:02:17;3.25;;;2.40;;
66163;SDS011;52962;51.088;3.096;2023-04-28T05:04:47;2.78;;;2.33;;
66163;SDS011;52962;51.088;3.096;2023-04-28T05:07:15;2.50;;;2.28;;
66163;SDS011;52962;51.088;3.096;2023-04-28T05:09:44;2.63;;;2.15;;
66163;SDS011;52962;51.088;3.096;2023-04-28T05:12:13;1.67;;;1.52;;
66163;SDS011;52962;51.088;3.096;2023-04-28T05:14:41;1.67;;;1.58;;
66163;SDS011;52962;51.088;3.096;2023-04-28T05:19:40;2.05;;;1.52;;
66163;SDS011;52962;51.088;3.096;2023-04-28T05:22:09;1.40;;;1.30;;
66163;SDS011;52962;51.088;3.096;2023-04-28T05:24:38;2.22;;;2.00;;
66163;SDS011;52962;51.088;3.096;2023-04-28T05:27:06;2.58;;;2.17;;
66163;SDS011;52962;51.088;3.096;2023-04-28T05:29:34;2.42;;;2.22;;
66163;SDS011;52962;51.088;3.096;2023-04-28T05:32:02;1.75;;;1.40;;
66163;SDS011;52962;51.088;3.096;2023-04-28T05:34:31;0.90;;;0.90;;
66163;SDS011;52962;51.088;3.096;2023-04-28T05:39:30;1.30;;;1.23;;
66163;SDS011;52962;51.088;3.096;2023-04-28T05:42:02;1.58;;;1.48;;
66163;SDS011;52962;51.088;3.096;2023-04-28T05:44:30;1.65;;;0.80;;
66163;SDS011;52962;51.088;3.096;2023-04-28T05:46:58;1.40;;;1.30;;
66163;SDS011;52962;51.088;3.096;2023-04-28T05:49:27;1.70;;;1.48;;
66163;SDS011;52962;51.088;3.096;2023-04-28T05:51:55;1.15;;;1.05;;
66163;SDS011;52962;51.088;3.096;2023-04-28T05:54:23;2.08;;;1.80;;
66163;SDS011;52962;51.088;3.096;2023-04-28T05:56:56;2.13;;;1.35;;
66163;SDS011;52962;51.088;3.096;2023-04-28T05:59:28;1.50;;;1.40;;
66163;SDS011;52962;51.088;3.096;2023-04-28T06:01:57;3.70;;;1.45;;
66163;SDS011;52962;51.088;3.096;2023-04-28T06:04:25;1.15;;;1.02;;
66163;SDS011;52962;51.088;3.096;2023-04-28T06:06:54;1.10;;;1.10;;
66163;SDS011;52962;51.088;3.096;2023-04-28T06:09:23;1.95;;;1.75;;
66163;SDS011;52962;51.088;3.096;2023-04-28T06:11:52;1.10;;;1.05;;
66163;SDS011;52962;51.088;3.096;2023-04-28T06:16:50;1.38;;;1.27;;
66163;SDS011;52962;51.088;3.096;2023-04-28T06:19:18;1.77;;;1.67;;
66163;SDS011;52962;51.088;3.096;2023-04-28T06:24:15;1.00;;;1.00;;
66163;SDS011;52962;51.088;3.096;2023-04-28T06:26:45;1.27;;;1.17;;
66163;SDS011;52962;51.088;3.096;2023-04-28T06:29:14;1.55;;;1.45;;
66163;SDS011;52962;51.088;3.096;2023-04-28T06:31:43;0.90;;;0.82;;
66163;SDS011;52962;51.088;3.096;2023-04-28T06:34:12;0.63;;;0.60;;
66163;SDS011;52962;51.088;3.096;2023-04-28T06:36:40;1.52;;;0.80;;
66163;SDS011;52962;51.088;3.096;2023-04-28T06:39:09;0.60;;;0.60;;
66163;SDS011;52962;51.088;3.096;2023-04-28T06:41:37;0.75;;;0.50;;
66163;SDS011;52962;51.088;3.096;2023-04-28T06:44:07;0.70;;;0.70;;
66163;SDS011;52962;51.088;3.096;2023-04-28T06:46:35;0.60;;;0.60;;
66163;SDS011;52962;51.088;3.096;2023-04-28T06:49:05;1.75;;;0.82;;
66163;SDS011;52962;51.088;3.096;2023-04-28T06:51:33;1.00;;;0.73;;
66163;SDS011;52962;51.088;3.096;2023-04-28T06:56:29;1.02;;;0.80;;
66163;SDS011;52962;51.088;3.096;2023-04-28T07:01:25;0.80;;;0.52;;
66163;SDS011;52962;51.088;3.096;2023-04-28T07:06:23;0.63;;;0.63;;
66163;SDS011;52962;51.088;3.096;2023-04-28T07:08:52;0.47;;;0.47;;
66163;SDS011;52962;51.088;3.096;2023-04-28T07:13:49;0.93;;;0.52;;
66163;SDS011;52962;51.088;3.096;2023-04-28T07:16:17;0.82;;;0.52;;
66163;SDS011;52962;51.088;3.096;2023-04-28T07:18:46;0.60;;;0.60;;
66163;SDS011;52962;51.088;3.096;2023-04-28T07:21:15;0.52;;;0.52;;
66163;SDS011;52962;51.088;3.096;2023-04-28T07:23:44;0.40;;;0.40;;
66163;SDS011;52962;51.088;3.096;2023-04-28T07:26:14;0.30;;;0.30;;
66163;SDS011;52962;51.088;3.096;2023-04-28T07:31:10;0.30;;;0.30;;
66163;SDS011;52962;51.088;3.096;2023-04-28T07:33:39;0.43;;;0.30;;
66163;SDS011;52962;51.088;3.096;2023-04-28T07:36:07;0.63;;;0.35;;
66163;SDS011;52962;51.088;3.096;2023-04-28T07:38:35;0.30;;;0.30;;
66163;SDS011;52962;51.088;3.096;2023-04-28T07:43:35;0.70;;;0.50;;
66163;SDS011;52962;51.088;3.096;2023-04-28T07:46:03;0.28;;;0.28;;
66163;SDS011;52962;51.088;3.096;2023-04-28T07:48:32;2.78;;;0.32;;
66163;SDS011;52962;51.088;3.096;2023-04-28T07:51:00;0.40;;;0.40;;
66163;SDS011;52962;51.088;3.096;2023-04-28T07:53:29;0.43;;;0.43;;
66163;SDS011;52962;51.088;3.096;2023-04-28T07:55:57;0.40;;;0.40;;
66163;SDS011;52962;51.088;3.096;2023-04-28T07:58:27;0.45;;;0.45;;
66163;SDS011;52962;51.088;3.096;2023-04-28T08:00:56;0.32;;;0.32;;
66163;SDS011;52962;51.088;3.096;2023-04-28T08:05:52;0.88;;;0.20;;
66163;SDS011;52962;51.088;3.096;2023-04-28T08:08:21;0.22;;;0.22;;
66163;SDS011;52962;51.088;3.096;2023-04-28T08:10:49;0.17;;;0.17;;
66163;SDS011;52962;51.088;3.096;2023-04-28T08:13:18;0.40;;;0.28;;
66163;SDS011;52962;51.088;3.096;2023-04-28T08:15:47;0.40;;;0.40;;
66163;SDS011;52962;51.088;3.096;2023-04-28T08:18:16;0.30;;;0.30;;
66163;SDS011;52962;51.088;3.096;2023-04-28T08:20:44;0.43;;;0.43;;
66163;SDS011;52962;51.088;3.096;2023-04-28T08:25:42;0.70;;;0.45;;
66163;SDS011;52962;51.088;3.096;2023-04-28T08:28:10;0.50;;;0.50;;
66163;SDS011;52962;51.088;3.096;2023-04-28T08:30:38;0.47;;;0.47;;
66163;SDS011;52962;51.088;3.096;2023-04-28T08:35:35;0.52;;;0.35;;
66163;SDS011;52962;51.088;3.096;2023-04-28T08:38:03;1.05;;;0.70;;
66163;SDS011;52962;51.088;3.096;2023-04-28T08:40:33;0.47;;;0.47;;
66163;SDS011;52962;51.088;3.096;2023-04-28T08:43:01;0.60;;;0.32;;
66163;SDS011;52962;51.088;3.096;2023-04-28T08:47:58;0.43;;;0.43;;
66163;SDS011;52962;51.088;3.096;2023-04-28T08:50:32;0.80;;;0.68;;
66163;SDS011;52962;51.088;3.096;2023-04-28T08:53:02;0.22;;;0.22;;
66163;SDS011;52962;51.088;3.096;2023-04-28T08:55:31;0.47;;;0.22;;
66163;SDS011;52962;51.088;3.096;2023-04-28T08:58:01;0.50;;;0.30;;
66163;SDS011;52962;51.088;3.096;2023-04-28T09:00:29;0.82;;;0.40;;
66163;SDS011;52962;51.088;3.096;2023-04-28T09:02:58;0.30;;;0.30;;
66163;SDS011;52962;51.088;3.096;2023-04-28T09:05:26;0.32;;;0.30;;
66163;SDS011;52962;51.088;3.096;2023-04-28T09:07:56;0.20;;;0.20;;
66163;SDS011;52962;51.088;3.096;2023-04-28T09:10:24;0.50;;;0.35;;
66163;SDS011;52962;51.088;3.096;2023-04-28T09:12:53;0.22;;;0.22;;
66163;SDS011;52962;51.088;3.096;2023-04-28T09:15:24;0.50;;;0.35;;
66163;SDS011;52962;51.088;3.096;2023-04-28T09:17:55;0.20;;;0.20;;
66163;SDS011;52962;51.088;3.096;2023-04-28T09:20:24;0.38;;;0.22;;
66163;SDS011;52962;51.088;3.096;2023-04-28T09:22:54;0.50;;;0.50;;
66163;SDS011;52962;51.088;3.096;2023-04-28T09:25:24;0.22;;;0.22;;
66163;SDS011;52962;51.088;3.096;2023-04-28T09:27:54;0.22;;;0.22;;
66163;SDS011;52962;51.088;3.096;2023-04-28T09:30:36;0.38;;;0.20;;
66163;SDS011;52962;51.088;3.096;2023-04-28T09:33:06;0.25;;;0.25;;
66163;SDS011;52962;51.088;3.096;2023-04-28T09:35:39;1.77;;;0.40;;
66163;SDS011;52962;51.088;3.096;2023-04-28T09:38:08;0.20;;;0.20;;
66163;SDS011;52962;51.088;3.096;2023-04-28T09:40:49;0.20;;;0.20;;
66163;SDS011;52962;51.088;3.096;2023-04-28T09:43:22;0.20;;;0.20;;
66163;SDS011;52962;51.088;3.096;2023-04-28T09:45:52;0.47;;;0.47;;
66163;SDS011;52962;51.088;3.096;2023-04-28T09:48:30;0.45;;;0.45;;
66163;SDS011;52962;51.088;3.096;2023-04-28T09:50:59;0.47;;;0.43;;
66163;SDS011;52962;51.088;3.096;2023-04-28T09:53:28;0.52;;;0.52;;
66163;SDS011;52962;51.088;3.096;2023-04-28T09:55:59;0.73;;;0.65;;
66163;SDS011;52962;51.088;3.096;2023-04-28T09:58:29;0.45;;;0.45;;
66163;SDS011;52962;51.088;3.096;2023-04-28T10:00:59;0.65;;;0.60;;
66163;SDS011;52962;51.088;3.096;2023-04-28T10:03:28;1.30;;;0.73;;
66163;SDS011;52962;51.088;3.096;2023-04-28T10:05:57;0.65;;;0.65;;
66163;SDS011;52962;51.088;3.096;2023-04-28T10:08:26;0.57;;;0.57;;
66163;SDS011;52962;51.088;3.096;2023-04-28T10:10:54;0.60;;;0.60;;
66163;SDS011;52962;51.088;3.096;2023-04-28T10:13:25;0.60;;;0.60;;
66163;SDS011;52962;51.088;3.096;2023-04-28T10:15:53;0.93;;;0.93;;
66163;SDS011;52962;51.088;3.096;2023-04-28T10:18:24;0.85;;;0.80;;
66163;SDS011;52962;51.088;3.096;2023-04-28T10:20:52;0.63;;;0.63;;
66163;SDS011;52962;51.088;3.096;2023-04-28T10:23:30;0.80;;;0.70;;
66163;SDS011;52962;51.088;3.096;2023-04-28T10:28:49;0.80;;;0.80;;
66163;SDS011;52962;51.088;3.096;2023-04-28T10:31:18;1.13;;;0.52;;
66163;SDS011;52962;51.088;3.096;2023-04-28T10:33:48;0.25;;;0.25;;
66163;SDS011;52962;51.088;3.096;2023-04-28T10:39:18;0.52;;;0.52;;
66163;SDS011;52962;51.088;3.096;2023-04-28T10:41:46;0.60;;;0.60;;
66163;SDS011;52962;51.088;3.096;2023-04-28T10:47:11;0.60;;;0.60;;
66163;SDS011;52962;51.088;3.096;2023-04-28T10:52:48;1.10;;;0.50;;
66163;SDS011;52962;51.088;3.096;2023-04-28T11:03:54;1.08;;;0.63;;
66163;SDS011;52962;51.088;3.096;2023-04-28T11:06:29;0.70;;;0.70;;
66163;SDS011;52962;51.088;3.096;2023-04-28T11:09:00;0.52;;;0.52;;
66163;SDS011;52962;51.088;3.096;2023-04-28T11:11:30;0.40;;;0.40;;
66163;SDS011;52962;51.088;3.096;2023-04-28T11:17:01;0.57;;;0.32;;
66163;SDS011;52962;51.088;3.096;2023-04-28T11:19:31;0.35;;;0.35;;
66163;SDS011;52962;51.088;3.096;2023-04-28T11:22:01;0.52;;;0.52;;
66163;SDS011;52962;51.088;3.096;2023-04-28T11:27:03;2.03;;;0.70;;
66163;SDS011;52962;51.088;3.096;2023-04-28T11:29:31;1.17;;;0.80;;
66163;SDS011;52962;51.088;3.096;2023-04-28T11:32:02;0.75;;;0.75;;
66163;SDS011;52962;51.088;3.096;2023-04-28T11:34:30;1.33;;;0.98;;
66163;SDS011;52962;51.088;3.096;2023-04-28T11:36:59;0.80;;;0.80;;
66163;SDS011;52962;51.088;3.096;2023-04-28T11:39:28;0.77;;;0.68;;
66163;SDS011;52962;51.088;3.096;2023-04-28T11:41:57;0.80;;;0.80;;
66163;SDS011;52962;51.088;3.096;2023-04-28T11:44:29;1.83;;;0.80;;
66163;SDS011;52962;51.088;3.096;2023-04-28T11:46:58;0.70;;;0.70;;
66163;SDS011;52962;51.088;3.096;2023-04-28T11:49:30;0.90;;;0.70;;
66163;SDS011;52962;51.088;3.096;2023-04-28T11:52:09;0.45;;;0.45;;
66163;SDS011;52962;51.088;3.096;2023-04-28T11:54:38;0.68;;;0.68;;
66163;SDS011;52962;51.088;3.096;2023-04-28T11:57:15;1.25;;;0.82;;
66163;SDS011;52962;51.088;3.096;2023-04-28T11:59:44;1.42;;;1.02;;
66163;SDS011;52962;51.088;3.096;2023-04-28T12:02:14;2.55;;;1.20;;
66163;SDS011;52962;51.088;3.096;2023-04-28T12:04:44;0.73;;;0.73;;
66163;SDS011;52962;51.088;3.096;2023-04-28T12:07:14;0.52;;;0.50;;
66163;SDS011;52962;51.088;3.096;2023-04-28T12:09:44;1.67;;;1.48;;
66163;SDS011;52962;51.088;3.096;2023-04-28T12:12:14;1.42;;;1.33;;
66163;SDS011;52962;51.088;3.096;2023-04-28T12:15:14;2.05;;;1.95;;
66163;SDS011;52962;51.088;3.096;2023-04-28T12:17:45;2.40;;;1.85;;
66163;SDS011;52962;51.088;3.096;2023-04-28T12:23:02;1.02;;;0.90;;
66163;SDS011;52962;51.088;3.096;2023-04-28T12:25:30;2.17;;;1.10;;
66163;SDS011;52962;51.088;3.096;2023-04-28T12:28:01;2.05;;;1.42;;
66163;SDS011;52962;51.088;3.096;2023-04-28T12:30:31;2.47;;;1.60;;
66163;SDS011;52962;51.088;3.096;2023-04-28T12:33:00;2.03;;;1.58;;
66163;SDS011;52962;51.088;3.096;2023-04-28T12:35:28;2.20;;;1.75;;
66163;SDS011;52962;51.088;3.096;2023-04-28T12:37:58;2.50;;;1.40;;
66163;SDS011;52962;51.088;3.096;2023-04-28T12:40:26;2.05;;;1.25;;
66163;SDS011;52962;51.088;3.096;2023-04-28T12:42:54;1.48;;;1.38;;
66163;SDS011;52962;51.088;3.096;2023-04-28T12:47:50;1.15;;;0.70;;
66163;SDS011;52962;51.088;3.096;2023-04-28T12:50:19;0.82;;;0.82;;
66163;SDS011;52962;51.088;3.096;2023-04-28T12:52:47;2.25;;;0.65;;
66163;SDS011;52962;51.088;3.096;2023-04-28T12:57:45;0.40;;;0.40;;
66163;SDS011;52962;51.088;3.096;2023-04-28T13:00:13;0.40;;;0.40;;
66163;SDS011;52962;51.088;3.096;2023-04-28T13:02:42;0.45;;;0.32;;
66163;SDS011;52962;51.088;3.096;2023-04-28T13:05:11;0.60;;;0.60;;
66163;SDS011;52962;51.088;3.096;2023-04-28T13:07:40;0.90;;;0.90;;
66163;SDS011;52962;51.088;3.096;2023-04-28T13:12:37;0.32;;;0.32;;
66163;SDS011;52962;51.088;3.096;2023-04-28T13:15:07;0.40;;;0.40;;
66163;SDS011;52962;51.088;3.096;2023-04-28T13:17:36;0.68;;;0.63;;
66163;SDS011;52962;51.088;3.096;2023-04-28T13:20:04;0.30;;;0.30;;
66163;SDS011;52962;51.088;3.096;2023-04-28T13:22:33;0.32;;;0.32;;
66163;SDS011;52962;51.088;3.096;2023-04-28T13:25:01;0.52;;;0.52;;
66163;SDS011;52962;51.088;3.096;2023-04-28T13:27:30;0.88;;;0.52;;
66163;SDS011;52962;51.088;3.096;2023-04-28T13:30:00;0.50;;;0.50;;
66163;SDS011;52962;51.088;3.096;2023-04-28T13:32:30;1.00;;;0.52;;
66163;SDS011;52962;51.088;3.096;2023-04-28T13:34:59;0.55;;;0.55;;
66163;SDS011;52962;51.088;3.096;2023-04-28T13:37:27;1.00;;;0.50;;
66163;SDS011;52962;51.088;3.096;2023-04-28T13:39:55;0.70;;;0.55;;
66163;SDS011;52962;51.088;3.096;2023-04-28T13:42:25;2.97;;;0.73;;
66163;SDS011;52962;51.088;3.096;2023-04-28T13:44:53;1.48;;;0.60;;
66163;SDS011;52962;51.088;3.096;2023-04-28T13:47:23;2.42;;;0.57;;
66163;SDS011;52962;51.088;3.096;2023-04-28T13:49:52;1.58;;;0.70;;
66163;SDS011;52962;51.088;3.096;2023-04-28T13:54:48;0.40;;;0.40;;
66163;SDS011;52962;51.088;3.096;2023-04-28T13:57:16;0.40;;;0.40;;
66163;SDS011;52962;51.088;3.096;2023-04-28T13:59:44;0.30;;;0.30;;
66163;SDS011;52962;51.088;3.096;2023-04-28T14:02:13;0.38;;;0.38;;
66163;SDS011;52962;51.088;3.096;2023-04-28T14:07:14;0.45;;;0.45;;
66163;SDS011;52962;51.088;3.096;2023-04-28T14:09:43;0.30;;;0.30;;
66163;SDS011;52962;51.088;3.096;2023-04-28T14:12:11;0.47;;;0.40;;
66163;SDS011;52962;51.088;3.096;2023-04-28T14:14:40;0.38;;;0.38;;
66163;SDS011;52962;51.088;3.096;2023-04-28T14:17:09;0.45;;;0.45;;
66163;SDS011;52962;51.088;3.096;2023-04-28T14:19:37;0.35;;;0.35;;
66163;SDS011;52962;51.088;3.096;2023-04-28T14:22:07;0.50;;;0.50;;
66163;SDS011;52962;51.088;3.096;2023-04-28T14:24:35;0.32;;;0.30;;
66163;SDS011;52962;51.088;3.096;2023-04-28T14:27:03;0.45;;;0.45;;
66163;SDS011;52962;51.088;3.096;2023-04-28T14:29:32;0.43;;;0.43;;
66163;SDS011;52962;51.088;3.096;2023-04-28T14:32:01;1.83;;;0.52;;
66163;SDS011;52962;51.088;3.096;2023-04-28T14:36:57;1.20;;;0.40;;
66163;SDS011;52962;51.088;3.096;2023-04-28T14:39:26;0.45;;;0.45;;
66163;SDS011;52962;51.088;3.096;2023-04-28T14:41:54;0.40;;;0.40;;
66163;SDS011;52962;51.088;3.096;2023-04-28T14:46:51;0.32;;;0.32;;
66163;SDS011;52962;51.088;3.096;2023-04-28T14:49:19;1.50;;;0.60;;
66163;SDS011;52962;51.088;3.096;2023-04-28T14:54:15;0.60;;;0.60;;
66163;SDS011;52962;51.088;3.096;2023-04-28T14:59:13;0.60;;;0.60;;
66163;SDS011;52962;51.088;3.096;2023-04-28T15:01:41;0.93;;;0.88;;
66163;SDS011;52962;51.088;3.096;2023-04-28T15:04:09;1.83;;;0.85;;
66163;SDS011;52962;51.088;3.096;2023-04-28T15:06:38;0.63;;;0.63;;
66163;SDS011;52962;51.088;3.096;2023-04-28T15:11:34;0.57;;;0.57;;
66163;SDS011;52962;51.088;3.096;2023-04-28T15:14:04;2.28;;;1.50;;
66163;SDS011;52962;51.088;3.096;2023-04-28T15:16:32;1.35;;;1.10;;
66163;SDS011;52962;51.088;3.096;2023-04-28T15:19:00;1.52;;;1.40;;
66163;SDS011;52962;51.088;3.096;2023-04-28T15:21:29;1.50;;;1.38;;
66163;SDS011;52962;51.088;3.096;2023-04-28T15:23:57;1.88;;;1.27;;
66163;SDS011;52962;51.088;3.096;2023-04-28T15:26:26;2.17;;;1.83;;
66163;SDS011;52962;51.088;3.096;2023-04-28T15:28:55;1.90;;;1.45;;
66163;SDS011;52962;51.088;3.096;2023-04-28T15:31:26;1.63;;;1.52;;
66163;SDS011;52962;51.088;3.096;2023-04-28T15:33:54;4.70;;;1.75;;
66163;SDS011;52962;51.088;3.096;2023-04-28T15:36:23;2.72;;;1.30;;
66163;SDS011;52962;51.088;3.096;2023-04-28T15:41:19;2.00;;;1.80;;
66163;SDS011;52962;51.088;3.096;2023-04-28T15:43:47;2.33;;;2.13;;
66163;SDS011;52962;51.088;3.096;2023-04-28T15:46:16;3.70;;;2.05;;
66163;SDS011;52962;51.088;3.096;2023-04-28T15:48:46;2.63;;;2.08;;
66163;SDS011;52962;51.088;3.096;2023-04-28T15:51:15;2.47;;;2.28;;
66163;SDS011;52962;51.088;3.096;2023-04-28T15:53:44;2.53;;;2.33;;
66163;SDS011;52962;51.088;3.096;2023-04-28T15:56:12;2.05;;;1.85;;
66163;SDS011;52962;51.088;3.096;2023-04-28T15:58:41;4.35;;;2.80;;
66163;SDS011;52962;51.088;3.096;2023-04-28T16:01:10;2.83;;;1.95;;
66163;SDS011;52962;51.088;3.096;2023-04-28T16:03:38;3.33;;;2.40;;
66163;SDS011;52962;51.088;3.096;2023-04-28T16:06:07;2.90;;;1.98;;
66163;SDS011;52962;51.088;3.096;2023-04-28T16:08:36;3.10;;;2.03;;
66163;SDS011;52962;51.088;3.096;2023-04-28T16:11:04;3.83;;;1.98;;
66163;SDS011;52962;51.088;3.096;2023-04-28T16:13:32;3.05;;;2.00;;
66163;SDS011;52962;51.088;3.096;2023-04-28T16:16:02;8.50;;;2.85;;
66163;SDS011;52962;51.088;3.096;2023-04-28T16:18:33;2.53;;;1.60;;
66163;SDS011;52962;51.088;3.096;2023-04-28T16:21:02;2.33;;;1.85;;
66163;SDS011;52962;51.088;3.096;2023-04-28T16:23:31;1.17;;;1.08;;
66163;SDS011;52962;51.088;3.096;2023-04-28T16:26:00;5.70;;;1.80;;
66163;SDS011;52962;51.088;3.096;2023-04-28T16:28:28;1.42;;;1.30;;
66163;SDS011;52962;51.088;3.096;2023-04-28T16:30:56;3.08;;;1.65;;
66163;SDS011;52962;51.088;3.096;2023-04-28T16:33:24;3.38;;;1.50;;
66163;SDS011;52962;51.088;3.096;2023-04-28T16:35:53;4.13;;;1.70;;
66163;SDS011;52962;51.088;3.096;2023-04-28T16:38:22;1.55;;;1.45;;
66163;SDS011;52962;51.088;3.096;2023-04-28T16:40:51;4.18;;;1.60;;
66163;SDS011;52962;51.088;3.096;2023-04-28T16:43:20;5.68;;;2.65;;
66163;SDS011;52962;51.088;3.096;2023-04-28T16:45:48;3.63;;;2.08;;
66163;SDS011;52962;51.088;3.096;2023-04-28T16:48:17;2.53;;;1.42;;
66163;SDS011;52962;51.088;3.096;2023-04-28T16:50:47;1.73;;;1.63;;